Estación Meteorológica Peña el Pijo (Robertgarden) [ 12/11/18 04:11:10 CET ]

Fecha Hora Presion(HPa) Temp (°C) Humedad % Rocio (°C) Viento ( m/s) Direccion Lluvia 1Hora(mm) Lluvia 24H(mm) LLuvia Total(mm)
2018-Jun-14 01:01:31 1009.300 10.6 68 4.9         266.25
2018-Jun-14 02:01:53 1009.100 10.2 70 5.0         266.25
2018-Jun-14 03:01:40 1009.000 9.3 73 4.7         266.25
2018-Jun-14 04:03:14 1008.400 9.4 73 4.8         266.25
2018-Jun-14 05:01:45 1008.200 9.1 75 4.8         266.25
2018-Jun-14 06:01:50 1008.600 8.5 76 4.5         266.25
2018-Jun-14 07:01:37 1008.400 8.9 76 4.8         266.25
2018-Jun-14 08:01:41 1008.400 11.3 79 7.8         266.25
2018-Jun-14 09:01:36 1008.100 18.0 62 10.6         266.25
2018-Jun-14 10:01:39 1008.000 21.9 47 10.0 1.5 N     266.25
2018-Jun-14 11:01:44 1007.900 23.9 39 9.1         266.25
2018-Jun-14 12:01:42 1008.100 26.1 35 9.3 0.3 NNE     266.25
2018-Jun-14 13:01:32 1008.200 27.2 31 8.6 0.4 SSE     266.25
2018-Jun-14 14:01:46 1007.800 27.1 30 8.1         266.25
2018-Jun-14 15:01:57 1007.600 28.1 28 7.7         266.25
2018-Jun-14 16:01:49 1007.300 29.4 26 7.7         266.25
2018-Jun-14 17:01:54 1007.000 29.5 25 7.2         266.25
2018-Jun-14 18:01:51 1007.000 28.1 27 7.1         266.25
2018-Jun-14 19:01:54 1006.900 27.8 27 6.9         266.25
2018-Jun-14 20:01:46 1007.400 26.0 28 5.9         266.25
2018-Jun-14 21:01:52 1008.000 20.9 32 3.5         266.25
2018-Jun-14 22:01:59 1008.500 17.3 41 3.9         266.25
2018-Jun-14 23:01:48 1009.300 13.9 50 3.7         266.25

Temperatura Máxima:29°    Temperatura Mínima:
Presión Máxima:1009.300 Hpa    Presión Mínima:1006.900 Hpa


Volver